Time;durP1;ratioP1;P1;durP2;ratioP2;P2;SDS_P1;SDS_P2;PMS_P1;PMS_P2;Temp;Humidity;BMP_temperature;BMP_pressure;BME280_temperature;BME280_humidity;BME280_pressure;Samples;Min_cycle;Max_cycle;Signal;HPM_P1;HPM_P2
2023/04/23 00:00:11;;;;;;;3.33;1.70;;;19.00;28.80;;;;;;5008346;28;20517;-70
2023/04/23 00:02:38;;;;;;;2.10;1.30;;;19.00;29.50;;;;;;5010267;28;20436;-70
2023/04/23 00:05:05;;;;;;;4.50;1.87;;;18.30;29.20;;;;;;5010486;28;20455;-70
2023/04/23 00:07:34;;;;;;;2.23;1.47;;;17.90;30.40;;;;;;5011420;28;20452;-70
2023/04/23 00:10:02;;;;;;;2.50;1.40;;;17.90;30.50;;;;;;5011041;28;20422;-69
2023/04/23 00:12:28;;;;;;;2.10;1.20;;;17.90;31.40;;;;;;5008827;28;20534;-70
2023/04/23 00:14:54;;;;;;;2.40;1.40;;;18.20;30.10;;;;;;5010085;28;21044;-70
2023/04/23 00:17:20;;;;;;;2.10;1.20;;;18.20;29.50;;;;;;5010847;28;20528;-69
2023/04/23 00:19:46;;;;;;;2.07;1.20;;;17.90;30.10;;;;;;5011459;28;20432;-70
2023/04/23 00:22:15;;;;;;;2.10;1.30;;;17.70;30.20;;;;;;5011320;28;20186;-70
2023/04/23 00:24:41;;;;;;;3.30;1.90;;;17.70;31.30;;;;;;5008164;28;20465;-70
2023/04/23 00:27:07;;;;;;;2.10;1.30;;;17.70;29.90;;;;;;5014860;28;20457;-70
2023/04/23 00:29:33;;;;;;;2.23;1.37;;;17.50;30.70;;;;;;5009250;28;20179;-70
2023/04/23 00:31:58;;;;;;;2.10;1.30;;;17.80;30.00;;;;;;5012408;28;20180;-70
2023/04/23 00:34:25;;;;;;;2.63;1.37;;;17.70;30.40;;;;;;5010636;28;20204;-70
2023/04/23 00:36:50;;;;;;;2.97;1.70;;;17.70;30.50;;;;;;5014157;28;20182;-70
2023/04/23 00:39:16;;;;;;;2.03;1.20;;;17.20;31.30;;;;;;5014473;28;20464;-70
2023/04/23 00:41:43;;;;;;;2.20;1.40;;;17.20;31.70;;;;;;5013247;28;20199;-70
2023/04/23 00:44:09;;;;;;;2.10;1.30;;;17.20;30.90;;;;;;5010623;28;20211;-68
2023/04/23 00:46:35;;;;;;;2.03;1.20;;;17.20;31.50;;;;;;5010770;28;20988;-69
2023/04/23 00:49:01;;;;;;;3.07;1.80;;;17.20;31.40;;;;;;5013867;28;20456;-70
2023/04/23 00:51:28;;;;;;;3.00;1.60;;;17.50;30.50;;;;;;5013566;28;20432;-70
2023/04/23 00:53:55;;;;;;;1.90;1.10;;;17.40;31.20;;;;;;5012221;28;20432;-70
2023/04/23 00:56:22;;;;;;;2.20;1.40;;;17.40;31.60;;;;;;5011138;28;21218;-70
2023/04/23 00:58:49;;;;;;;2.50;1.60;;;17.40;31.30;;;;;;5008772;28;20436;-70
2023/04/23 01:01:17;;;;;;;2.00;1.20;;;17.60;31.30;;;;;;5014602;28;20439;-70
2023/04/23 01:03:42;;;;;;;2.10;1.30;;;17.00;32.70;;;;;;5008026;28;20424;-71
2023/04/23 01:06:08;;;;;;;2.20;1.43;;;17.20;33.00;;;;;;5012155;28;20454;-70
2023/04/23 01:08:35;;;;;;;2.43;1.43;;;17.20;33.10;;;;;;5013301;28;20188;-71
2023/04/23 01:11:02;;;;;;;2.10;1.30;;;17.60;32.50;;;;;;5014457;28;20173;-70
2023/04/23 01:13:29;;;;;;;2.20;1.40;;;17.20;33.10;;;;;;5013240;28;20424;-70
2023/04/23 01:15:55;;;;;;;2.30;1.40;;;16.80;34.70;;;;;;5012161;28;20429;-70
2023/04/23 01:18:22;;;;;;;2.20;1.40;;;16.50;35.80;;;;;;5013750;28;20431;-71
2023/04/23 01:20:48;;;;;;;2.00;1.10;;;16.40;36.90;;;;;;5013816;28;20991;-69
2023/04/23 01:23:15;;;;;;;2.30;1.30;;;16.30;38.20;;;;;;5012176;28;20425;-68
2023/04/23 01:25:41;;;;;;;2.30;1.40;;;16.80;37.10;;;;;;5012118;28;20459;-68
2023/04/23 01:28:07;;;;;;;2.20;1.30;;;16.90;35.70;;;;;;5013037;28;20485;-67
2023/04/23 01:30:34;;;;;;;2.23;1.40;;;16.70;37.80;;;;;;5013044;28;20416;-67
2023/04/23 01:33:00;;;;;;;2.10;1.20;;;16.60;38.50;;;;;;5011379;28;20428;-70
2023/04/23 01:35:27;;;;;;;2.00;1.20;;;16.70;38.10;;;;;;5011748;28;20531;-70
2023/04/23 01:37:53;;;;;;;16.80;3.13;;;16.60;37.50;;;;;;5009577;28;20804;-69
2023/04/23 01:40:20;;;;;;;2.07;1.30;;;16.90;37.60;;;;;;5011858;28;20429;-68
2023/04/23 01:42:46;;;;;;;2.40;1.57;;;16.80;37.80;;;;;;5008923;28;20447;-68
2023/04/23 01:45:12;;;;;;;2.30;1.50;;;16.60;38.50;;;;;;5015612;22;20483;-70
2023/04/23 01:47:41;;;;;;;2.10;1.20;;;16.70;39.40;;;;;;5011739;28;20471;-72
2023/04/23 01:50:08;;;;;;;2.17;1.30;;;16.90;38.80;;;;;;5007582;28;20551;-66
2023/04/23 01:52:34;;;;;;;2.20;1.37;;;17.00;37.80;;;;;;5013068;28;20432;-68
2023/04/23 01:55:00;;;;;;;3.07;1.57;;;16.80;38.70;;;;;;5009961;28;20428;-65
2023/04/23 01:57:26;;;;;;;2.10;1.30;;;16.60;39.30;;;;;;5012448;28;20194;-66
2023/04/23 02:00:07;;;;;;;2.00;1.20;;;16.30;41.20;;;;;;5010115;28;20427;-66
2023/04/23 02:02:33;;;;;;;2.10;1.20;;;16.70;39.70;;;;;;5008494;28;20183;-68
2023/04/23 02:05:03;;;;;;;2.20;1.37;;;17.00;39.70;;;;;;5012253;28;20451;-67
2023/04/23 02:07:32;;;;;;;2.27;1.40;;;16.90;40.20;;;;;;5018765;28;20469;-67
2023/04/23 02:09:58;;;;;;;2.00;1.20;;;16.80;40.70;;;;;;5002330;28;20458;-66
2023/04/23 02:12:25;;;;;;;2.20;1.40;;;16.60;41.90;;;;;;5012435;28;20436;-67
2023/04/23 02:14:50;;;;;;;3.37;1.63;;;16.90;43.10;;;;;;5014693;28;20467;-66
2023/04/23 02:17:17;;;;;;;2.20;1.30;;;17.10;43.80;;;;;;5011003;28;20969;-66
2023/04/23 02:19:42;;;;;;;2.30;1.40;;;17.40;42.40;;;;;;5012982;28;20246;-66
2023/04/23 02:22:09;;;;;;;2.00;1.20;;;17.50;40.20;;;;;;5011563;28;20510;-67
2023/04/23 02:24:35;;;;;;;2.10;1.27;;;17.80;39.60;;;;;;5010922;28;20180;-66
2023/04/23 02:27:00;;;;;;;2.20;1.40;;;17.60;40.40;;;;;;5017489;28;20551;-70
2023/04/23 02:29:26;;;;;;;2.80;1.50;;;17.60;42.80;;;;;;5009907;28;20567;-67
2023/04/23 02:31:52;;;;;;;2.10;1.30;;;17.40;43.20;;;;;;5009616;28;20260;-67
2023/04/23 02:34:17;;;;;;;2.27;1.40;;;17.40;43.20;;;;;;5011009;28;20189;-67
2023/04/23 02:36:43;;;;;;;2.10;1.30;;;17.30;42.30;;;;;;5013708;28;20601;-69
2023/04/23 02:39:09;;;;;;;2.30;1.47;;;17.30;43.00;;;;;;5010602;28;20465;-67
2023/04/23 02:41:35;;;;;;;2.10;1.37;;;17.30;42.90;;;;;;5011509;28;20261;-67
2023/04/23 02:44:00;;;;;;;2.00;1.10;;;17.20;42.60;;;;;;5011429;28;20231;-67
2023/04/23 02:46:26;;;;;;;2.10;1.30;;;17.10;44.80;;;;;;5010359;28;20224;-67
2023/04/23 02:48:51;;;;;;;2.87;1.60;;;17.20;44.50;;;;;;5011223;28;20249;-67
2023/04/23 02:51:17;;;;;;;2.87;1.70;;;17.30;45.00;;;;;;5010682;28;20255;-67
2023/04/23 02:53:42;;;;;;;2.30;1.40;;;17.40;42.70;;;;;;5009516;28;20180;-67
2023/04/23 02:56:08;;;;;;;2.23;1.30;;;17.30;42.90;;;;;;5012543;28;20676;-67
2023/04/23 02:58:34;;;;;;;2.03;1.23;;;17.70;45.10;;;;;;5010466;28;20537;-69
2023/04/23 03:00:59;;;;;;;2.00;1.20;;;17.10;45.20;;;;;;5009267;28;20236;-67
2023/04/23 03:03:30;;;;;;;2.00;1.13;;;17.10;46.30;;;;;;5009047;28;20177;-67
2023/04/23 03:05:56;;;;;;;2.10;1.30;;;17.00;46.40;;;;;;5016334;28;20228;-67
2023/04/23 03:08:21;;;;;;;2.00;1.20;;;16.90;47.00;;;;;;5011450;28;20495;-67
2023/04/23 03:10:47;;;;;;;2.07;1.27;;;16.80;47.90;;;;;;5008339;28;20432;-67
2023/04/23 03:13:13;;;;;;;2.10;1.27;;;16.80;48.00;;;;;;5011942;28;20227;-68
2023/04/23 03:15:39;;;;;;;2.30;1.47;;;16.90;48.90;;;;;;5011293;28;20199;-68
2023/04/23 03:18:07;;;;;;;1.93;1.13;;;16.90;48.00;;;;;;5011357;28;20451;-67
2023/04/23 03:20:36;;;;;;;2.20;1.27;;;17.00;48.20;;;;;;5010491;28;20441;-69
2023/04/23 03:23:05;;;;;;;2.10;1.33;;;16.90;48.50;;;;;;5009002;28;20432;-66
2023/04/23 03:25:31;;;;;;;2.63;1.60;;;16.80;48.40;;;;;;5015294;28;20483;-69
2023/04/23 03:27:56;;;;;;;2.10;1.30;;;16.70;48.60;;;;;;5010003;28;20998;-68
2023/04/23 03:30:22;;;;;;;3.27;2.13;;;16.80;48.90;;;;;;5008704;28;20435;-67
2023/04/23 03:32:49;;;;;;;2.10;1.20;;;16.90;48.20;;;;;;5009974;28;20550;-67
2023/04/23 03:35:15;;;;;;;2.00;1.20;;;17.00;47.10;;;;;;5016108;28;20299;-68
2023/04/23 03:37:41;;;;;;;2.40;1.47;;;16.80;48.00;;;;;;5003779;28;20427;-68
2023/04/23 03:40:08;;;;;;;2.17;1.30;;;16.80;48.60;;;;;;5009453;28;20529;-69
2023/04/23 03:42:33;;;;;;;2.10;1.20;;;16.70;48.90;;;;;;5009827;28;20443;-70
2023/04/23 03:45:00;;;;;;;2.20;1.40;;;16.80;48.50;;;;;;5008689;28;20440;-72
2023/04/23 03:47:25;;;;;;;2.20;1.30;;;16.80;48.90;;;;;;5013280;28;20564;-68
2023/04/23 03:49:52;;;;;;;2.30;1.40;;;16.90;48.10;;;;;;5009504;28;20425;-67
2023/04/23 03:52:17;;;;;;;2.07;1.17;;;16.90;48.20;;;;;;5009639;28;20192;-68
2023/04/23 03:54:43;;;;;;;2.20;1.33;;;16.80;49.10;;;;;;5010271;28;20428;-68
2023/04/23 03:57:10;;;;;;;2.17;1.30;;;16.80;49.20;;;;;;5011727;28;20196;-67
2023/04/23 03:59:36;;;;;;;2.70;1.50;;;16.90;49.20;;;;;;5012785;28;20183;-67
2023/04/23 04:02:04;;;;;;;2.40;1.37;;;16.90;49.00;;;;;;5011759;28;20451;-68
2023/04/23 04:04:30;;;;;;;2.10;1.10;;;16.90;48.10;;;;;;5016390;28;20692;-67
2023/04/23 04:06:56;;;;;;;2.10;1.20;;;16.80;48.50;;;;;;5014518;28;20562;-67
2023/04/23 04:09:22;;;;;;;2.27;1.30;;;16.70;48.60;;;;;;5015111;28;20215;-68
2023/04/23 04:11:48;;;;;;;2.43;1.33;;;16.70;49.10;;;;;;5013940;28;20475;-68
2023/04/23 04:14:13;;;;;;;2.20;1.20;;;16.60;49.80;;;;;;5023132;28;20514;-67
2023/04/23 04:16:39;;;;;;;2.10;1.10;;;16.70;50.40;;;;;;5013473;28;20210;-67
2023/04/23 04:19:05;;;;;;;2.20;1.17;;;16.60;49.90;;;;;;5013952;28;20177;-67
2023/04/23 04:21:32;;;;;;;2.17;1.17;;;16.60;49.80;;;;;;5012775;28;20668;-68
2023/04/23 04:24:00;;;;;;;2.20;1.20;;;16.60;49.90;;;;;;5015282;28;20469;-69
2023/04/23 04:26:26;;;;;;;2.30;1.20;;;16.60;50.10;;;;;;5013041;28;20559;-67
2023/04/23 04:28:52;;;;;;;2.23;1.20;;;16.60;48.40;;;;;;5013674;28;20875;-68
2023/04/23 04:31:20;;;;;;;2.30;1.30;;;16.60;49.10;;;;;;5013858;28;20514;-67
2023/04/23 04:33:46;;;;;;;2.40;1.30;;;16.70;49.70;;;;;;5012654;28;20200;-70
2023/04/23 04:36:13;;;;;;;3.80;1.50;;;16.50;49.90;;;;;;5014774;28;20853;-67
2023/04/23 04:38:39;;;;;;;2.37;1.30;;;16.60;49.30;;;;;;5014948;28;20411;-67
2023/04/23 04:41:06;;;;;;;3.50;1.50;;;16.60;49.60;;;;;;5012587;28;20420;-68
2023/04/23 04:43:33;;;;;;;2.30;1.20;;;16.70;49.20;;;;;;5014629;28;20412;-68
2023/04/23 04:45:59;;;;;;;2.50;1.40;;;16.70;49.20;;;;;;5014801;28;20474;-68
2023/04/23 04:48:26;;;;;;;2.40;1.30;;;16.80;48.90;;;;;;5015178;28;20463;-67
2023/04/23 04:50:52;;;;;;;2.30;1.20;;;16.90;48.60;;;;;;5015070;28;20485;-68
2023/04/23 04:53:17;;;;;;;2.30;1.20;;;16.80;49.30;;;;;;5011993;28;20935;-67
2023/04/23 04:55:43;;;;;;;2.30;1.10;;;16.60;50.00;;;;;;5012239;28;20455;-68
2023/04/23 04:58:08;;;;;;;2.30;1.20;;;16.70;50.20;;;;;;5016374;28;20237;-68
2023/04/23 05:00:34;;;;;;;2.30;1.20;;;16.60;50.10;;;;;;5011315;28;20259;-68
2023/04/23 05:03:00;;;;;;;2.60;1.40;;;16.70;50.10;;;;;;5012250;28;20223;-68
2023/04/23 05:05:26;;;;;;;3.33;1.30;;;16.70;49.30;;;;;;5010859;28;20212;-68
2023/04/23 05:07:58;;;;;;;2.50;1.30;;;16.80;48.90;;;;;;5012606;28;20216;-68
2023/04/23 05:10:25;;;;;;;4.53;1.87;;;16.70;49.30;;;;;;5012485;28;20431;-71
2023/04/23 05:12:50;;;;;;;2.40;1.20;;;17.10;49.40;;;;;;5009288;28;20435;-67
2023/04/23 05:15:16;;;;;;;2.50;1.30;;;16.60;50.00;;;;;;5010862;28;20452;-67
2023/04/23 05:17:42;;;;;;;2.40;1.20;;;16.70;51.10;;;;;;5013852;28;20203;-67
2023/04/23 05:20:09;;;;;;;2.30;1.10;;;16.60;49.50;;;;;;5013425;28;20265;-68
2023/04/23 05:22:43;;;;;;;4.83;1.50;;;16.70;49.10;;;;;;5008863;28;20193;-68
2023/04/23 05:25:10;;;;;;;2.40;1.20;;;16.70;49.70;;;;;;5015741;28;20445;-68
2023/04/23 05:27:36;;;;;;;2.30;1.13;;;16.60;49.40;;;;;;5012134;28;20859;-67
2023/04/23 05:30:03;;;;;;;4.97;1.97;;;16.60;49.10;;;;;;5012379;28;20433;-68
2023/04/23 05:32:29;;;;;;;2.30;1.10;;;16.50;49.50;;;;;;5011856;28;20185;-72
2023/04/23 05:34:55;;;;;;;2.40;1.20;;;16.50;50.00;;;;;;5016996;28;20950;-68
2023/04/23 05:37:20;;;;;;;2.30;1.10;;;16.50;49.70;;;;;;5015739;28;20180;-68
2023/04/23 05:39:46;;;;;;;2.23;1.10;;;16.60;49.50;;;;;;5012669;28;20192;-68
2023/04/23 05:42:12;;;;;;;2.30;1.20;;;16.60;49.60;;;;;;5012292;28;20263;-68
2023/04/23 05:44:37;;;;;;;2.40;1.23;;;16.70;49.30;;;;;;5011048;28;20415;-67
2023/04/23 05:47:03;;;;;;;2.30;1.10;;;16.70;49.40;;;;;;5013246;28;20690;-67
2023/04/23 05:49:29;;;;;;;2.50;1.40;;;16.70;49.60;;;;;;5011855;28;20177;-68
2023/04/23 05:51:57;;;;;;;2.30;1.10;;;16.70;50.60;;;;;;5013540;28;20256;-68
2023/04/23 05:54:23;;;;;;;2.23;1.20;;;16.80;50.30;;;;;;5008733;28;20904;-68
2023/04/23 05:56:48;;;;;;;2.33;1.30;;;16.90;49.40;;;;;;5012340;28;20542;-69
2023/04/23 05:59:14;;;;;;;2.30;1.30;;;16.80;48.20;;;;;;5007802;28;20196;-68
2023/04/23 06:01:40;;;;;;;2.43;1.30;;;16.90;47.20;;;;;;5018367;28;20182;-68
2023/04/23 06:04:06;;;;;;;2.20;1.13;;;17.00;46.60;;;;;;5012836;28;20169;-68
2023/04/23 06:06:32;;;;;;;2.30;1.40;;;17.10;41.80;;;;;;5010889;28;20474;-71
2023/04/23 06:08:57;;;;;;;2.20;1.20;;;17.20;43.30;;;;;;5012990;28;20790;-72
2023/04/23 06:11:23;;;;;;;2.10;1.20;;;17.10;43.60;;;;;;5012656;28;20177;-74
2023/04/23 06:13:49;;;;;;;2.10;1.20;;;17.10;41.90;;;;;;5011097;28;20664;-74
2023/04/23 06:16:15;;;;;;;2.20;1.30;;;17.30;43.20;;;;;;5011434;28;20189;-74
2023/04/23 06:18:40;;;;;;;2.10;1.20;;;17.40;44.30;;;;;;5014051;28;20194;-74
2023/04/23 06:21:06;;;;;;;2.00;1.10;;;17.50;45.10;;;;;;5008187;28;20185;-73
2023/04/23 06:23:32;;;;;;;1.90;1.20;;;17.80;44.00;;;;;;5007891;28;20219;-74
2023/04/23 06:25:58;;;;;;;2.10;1.40;;;18.00;44.00;;;;;;5009821;28;20712;-74
2023/04/23 06:28:23;;;;;;;2.80;1.43;;;18.20;39.40;;;;;;5011744;28;20470;-74
2023/04/23 06:30:49;;;;;;;2.30;1.30;;;18.40;40.70;;;;;;5017451;28;20212;-74
2023/04/23 06:33:15;;;;;;;1.90;1.30;;;18.10;42.00;;;;;;5011353;28;20664;-74
2023/04/23 06:35:40;;;;;;;2.03;1.37;;;18.30;40.40;;;;;;5012486;28;20576;-69
2023/04/23 06:38:06;;;;;;;1.80;1.20;;;18.00;42.70;;;;;;5008272;28;20267;-69
2023/04/23 06:40:32;;;;;;;1.80;1.20;;;18.30;40.10;;;;;;5011571;28;20190;-69
2023/04/23 06:42:58;;;;;;;2.30;1.60;;;18.60;39.90;;;;;;5011737;28;20206;-69
2023/04/23 06:45:24;;;;;;;2.20;1.30;;;18.40;40.20;;;;;;5009410;28;21018;-69
2023/04/23 06:47:49;;;;;;;2.10;1.37;;;18.40;38.90;;;;;;5012520;28;20626;-69
2023/04/23 06:50:16;;;;;;;2.10;1.40;;;18.30;40.90;;;;;;5016203;28;20179;-69
2023/04/23 06:52:42;;;;;;;1.80;1.20;;;18.10;38.20;;;;;;5002900;28;20269;-69
2023/04/23 06:55:08;;;;;;;3.27;1.60;;;18.20;40.00;;;;;;5008830;28;20878;-69
2023/04/23 06:57:34;;;;;;;1.80;1.20;;;18.60;38.40;;;;;;5011156;28;20805;-69
2023/04/23 07:00:00;;;;;;;1.97;1.30;;;18.60;35.80;;;;;;5011649;28;20440;-69
2023/04/23 07:02:26;;;;;;;2.80;1.40;;;18.70;34.20;;;;;;5004018;28;20415;-69
2023/04/23 07:04:51;;;;;;;1.80;1.20;;;18.70;39.00;;;;;;5009074;28;20253;-69
2023/04/23 07:07:17;;;;;;;1.90;1.20;;;18.60;36.30;;;;;;5010233;28;20259;-69
2023/04/23 07:09:43;;;;;;;1.93;1.30;;;18.70;32.60;;;;;;5007151;28;20265;-69
2023/04/23 07:12:08;;;;;;;1.80;1.20;;;18.70;32.30;;;;;;5006424;28;20197;-69
2023/04/23 07:14:34;;;;;;;1.90;1.20;;;18.50;35.80;;;;;;5011948;28;20173;-68
2023/04/23 07:16:59;;;;;;;1.80;1.23;;;18.60;33.90;;;;;;5008179;28;20244;-69
2023/04/23 07:19:26;;;;;;;1.80;1.20;;;18.40;33.90;;;;;;5011124;28;20705;-69
2023/04/23 07:21:52;;;;;;;1.80;1.17;;;18.50;32.30;;;;;;5017098;28;20181;-69
2023/04/23 07:24:17;;;;;;;1.80;1.20;;;18.00;32.60;;;;;;5011748;28;20865;-68
2023/04/23 07:26:44;;;;;;;1.90;1.30;;;16.80;35.10;;;;;;5009350;28;20554;-69
2023/04/23 07:29:12;;;;;;;2.10;1.50;;;17.30;37.00;;;;;;5011419;28;20276;-69
2023/04/23 07:31:40;;;;;;;2.40;1.33;;;18.00;36.10;;;;;;5014787;28;20855;-69
2023/04/23 07:34:06;;;;;;;1.90;1.30;;;18.40;34.00;;;;;;5014469;28;20430;-69
2023/04/23 07:36:32;;;;;;;1.97;1.30;;;18.50;33.30;;;;;;5018201;28;20435;-69
2023/04/23 07:38:57;;;;;;;1.87;1.20;;;18.60;33.00;;;;;;5017991;28;20609;-69
2023/04/23 07:41:23;;;;;;;1.97;1.20;;;18.10;33.60;;;;;;5017368;28;20429;-73
2023/04/23 07:43:49;;;;;;;1.87;1.20;;;17.50;32.30;;;;;;5018663;28;20232;-67
2023/04/23 07:46:15;;;;;;;1.90;1.30;;;17.50;33.10;;;;;;5042405;22;20506;-71
2023/04/23 07:48:41;;;;;;;1.90;1.20;;;18.30;32.40;;;;;;5034337;28;20174;-75
2023/04/23 07:51:07;;;;;;;1.90;1.23;;;18.40;31.30;;;;;;5036495;28;20594;-73
2023/04/23 07:53:33;;;;;;;1.90;1.20;;;18.10;32.60;;;;;;5032638;28;20187;-73
2023/04/23 07:55:59;;;;;;;1.83;1.13;;;18.00;33.40;;;;;;5034038;28;21058;-73
2023/04/23 07:58:25;;;;;;;1.90;1.20;;;17.80;32.80;;;;;;5037143;28;20503;-73
2023/04/23 08:00:51;;;;;;;2.00;1.30;;;17.90;32.60;;;;;;5036556;28;20523;-73
2023/04/23 08:03:16;;;;;;;2.00;1.30;;;18.60;31.00;;;;;;5035522;28;20183;-75
2023/04/23 08:05:42;;;;;;;1.87;1.20;;;18.90;30.50;;;;;;5035895;28;20186;-72
2023/04/23 08:08:09;;;;;;;1.90;1.20;;;18.90;29.50;;;;;;5037926;28;20638;-74
2023/04/23 08:10:35;;;;;;;1.90;1.20;;;18.30;30.80;;;;;;5036986;28;20239;-74
2023/04/23 08:13:01;;;;;;;2.00;1.30;;;17.60;31.90;;;;;;5033190;28;20934;-72
2023/04/23 08:15:27;;;;;;;2.33;1.50;;;17.10;32.80;;;;;;5035114;28;20172;-73
2023/04/23 08:17:53;;;;;;;1.97;1.33;;;17.30;33.50;;;;;;5036720;28;20447;-74
2023/04/23 08:20:18;;;;;;;1.97;1.30;;;18.10;32.00;;;;;;5036409;28;20213;-73
2023/04/23 08:22:44;;;;;;;1.90;1.27;;;18.50;31.70;;;;;;5034865;28;20182;-72
2023/04/23 08:25:11;;;;;;;2.07;1.30;;;18.70;31.00;;;;;;5032245;28;20195;-75
2023/04/23 08:27:37;;;;;;;1.90;1.30;;;18.60;32.70;;;;;;5034684;28;20211;-74
2023/04/23 08:30:04;;;;;;;2.00;1.30;;;19.30;31.30;;;;;;5028874;28;20489;-74
2023/04/23 08:32:29;;;;;;;2.00;1.40;;;19.90;28.30;;;;;;5033755;28;20169;-72
2023/04/23 08:34:55;;;;;;;1.90;1.20;;;20.10;26.30;;;;;;5033815;28;20432;-71
2023/04/23 08:37:21;;;;;;;2.00;1.37;;;20.60;26.40;;;;;;5035770;28;20206;-72
2023/04/23 08:39:46;;;;;;;1.83;1.20;;;21.00;27.30;;;;;;5036349;28;20178;-71
2023/04/23 08:42:37;;;;;;;1.87;1.17;;;21.00;26.70;;;;;;5035700;28;20175;-72
2023/04/23 08:45:03;;;;;;;1.90;1.20;;;20.40;26.30;;;;;;5033234;28;20164;-72
2023/04/23 08:47:31;;;;;;;1.90;1.30;;;19.40;28.40;;;;;;5033038;28;20478;-71
2023/04/23 08:49:58;;;;;;;2.00;1.30;;;18.80;29.20;;;;;;5034363;28;20952;-71
2023/04/23 08:52:25;;;;;;;1.90;1.23;;;18.20;29.90;;;;;;5034433;28;20899;-71
2023/04/23 08:54:59;;;;;;;1.90;1.30;;;18.30;30.00;;;;;;5032574;28;20476;-71
2023/04/23 08:57:25;;;;;;;2.10;1.37;;;18.30;30.60;;;;;;5031345;28;20837;-71
2023/04/23 08:59:51;;;;;;;2.67;1.40;;;18.90;28.60;;;;;;5033989;28;20427;-71
2023/04/23 09:02:18;;;;;;;1.80;1.20;;;18.70;29.10;;;;;;5034122;28;20403;-71
2023/04/23 09:04:47;;;;;;;1.90;1.30;;;18.50;29.40;;;;;;5033955;28;20425;-71
2023/04/23 09:07:14;;;;;;;1.90;1.30;;;19.20;28.70;;;;;;5030402;28;20811;-72
2023/04/23 09:09:40;;;;;;;1.90;1.30;;;19.50;28.50;;;;;;5032849;28;20435;-71
2023/04/23 09:12:07;;;;;;;1.80;1.17;;;19.90;29.00;;;;;;5033998;28;20419;-71
2023/04/23 09:14:34;;;;;;;1.83;1.30;;;20.30;26.20;;;;;;5032474;28;20422;-72
2023/04/23 09:17:01;;;;;;;4.87;1.53;;;20.40;26.60;;;;;;5032643;28;20442;-72
2023/04/23 09:19:27;;;;;;;1.80;1.20;;;20.60;26.40;;;;;;5032514;28;20436;-71
2023/04/23 09:21:53;;;;;;;7.57;1.60;;;20.80;29.20;;;;;;5032481;28;20534;-72
2023/04/23 09:24:23;;;;;;;2.20;1.43;;;20.90;27.20;;;;;;5032002;28;20436;-70
2023/04/23 09:26:51;;;;;;;1.90;1.30;;;20.20;30.00;;;;;;5033557;28;20535;-71
2023/04/23 09:29:20;;;;;;;1.90;1.27;;;20.10;30.00;;;;;;5033628;28;20407;-71
2023/04/23 09:31:46;;;;;;;1.90;1.20;;;20.20;28.90;;;;;;5035272;28;20427;-71
2023/04/23 09:34:17;;;;;;;1.90;1.20;;;20.10;27.70;;;;;;5031867;28;20946;-72
2023/04/23 09:36:44;;;;;;;3.60;1.93;;;20.40;26.90;;;;;;5028888;28;20459;-72
2023/04/23 09:39:14;;;;;;;1.93;1.30;;;20.50;26.30;;;;;;5032256;28;20432;-72
2023/04/23 09:41:40;;;;;;;1.90;1.30;;;21.00;25.30;;;;;;5033685;28;20418;-71
2023/04/23 09:44:07;;;;;;;2.10;1.30;;;20.70;26.50;;;;;;5030769;28;20440;-71
2023/04/23 09:46:38;;;;;;;2.13;1.40;;;21.20;26.80;;;;;;5033024;28;20471;-72
2023/04/23 09:49:07;;;;;;;2.30;1.60;;;20.70;27.00;;;;;;5032104;28;20568;-71
2023/04/23 09:51:38;;;;;;;2.10;1.30;;;21.10;26.80;;;;;;5033319;28;20920;-72
2023/04/23 09:54:09;;;;;;;1.90;1.20;;;21.30;25.90;;;;;;5032272;28;20944;-72
2023/04/23 09:56:35;;;;;;;2.00;1.30;;;21.90;26.30;;;;;;5032530;28;20591;-72
2023/04/23 09:59:01;;;;;;;2.20;1.30;;;22.30;24.80;;;;;;5032861;28;20430;-72
2023/04/23 10:01:28;;;;;;;2.13;1.33;;;22.10;24.90;;;;;;5029669;28;20430;-72
2023/04/23 10:03:55;;;;;;;2.20;1.30;;;22.10;25.50;;;;;;5031540;28;20189;-71
2023/04/23 10:06:28;;;;;;;2.00;1.20;;;22.00;25.00;;;;;;5032747;28;20438;-72
2023/04/23 10:08:55;;;;;;;2.40;1.50;;;21.40;25.30;;;;;;5033018;28;20408;-72
2023/04/23 10:11:23;;;;;;;2.30;1.30;;;21.30;28.10;;;;;;5030387;28;20530;-72
2023/04/23 10:13:50;;;;;;;2.30;1.43;;;21.90;27.70;;;;;;5030458;28;20424;-71
2023/04/23 10:16:17;;;;;;;2.20;1.30;;;22.10;26.40;;;;;;5032747;28;20798;-72
2023/04/23 10:18:43;;;;;;;2.20;1.30;;;22.00;27.50;;;;;;5032616;28;20434;-71
2023/04/23 10:21:11;;;;;;;2.10;1.20;;;21.90;25.90;;;;;;5032845;28;20407;-72
2023/04/23 10:23:38;;;;;;;2.20;1.20;;;22.00;28.80;;;;;;5028729;28;20437;-72
2023/04/23 10:26:04;;;;;;;3.00;1.53;;;21.90;25.40;;;;;;5032319;28;20420;-72
2023/04/23 10:28:33;;;;;;;3.00;1.37;;;22.20;27.10;;;;;;5032485;28;20548;-72
2023/04/23 10:30:59;;;;;;;2.70;1.40;;;22.40;26.20;;;;;;5032574;28;20408;-72
2023/04/23 10:33:27;;;;;;;2.60;1.30;;;22.90;23.40;;;;;;5030632;28;20951;-72
2023/04/23 10:35:55;;;;;;;2.50;1.30;;;22.90;24.40;;;;;;5032220;28;20456;-72
2023/04/23 10:38:22;;;;;;;2.50;1.30;;;23.40;23.50;;;;;;5032431;28;20414;-72
2023/04/23 10:40:52;;;;;;;2.70;1.20;;;23.60;23.70;;;;;;5032499;28;20436;-72
2023/04/23 10:43:18;;;;;;;3.67;1.47;;;23.60;23.20;;;;;;5031574;28;20442;-72
2023/04/23 10:45:44;;;;;;;2.80;1.30;;;24.00;23.00;;;;;;5030412;28;20804;-72
2023/04/23 10:48:10;;;;;;;3.23;1.40;;;23.70;25.10;;;;;;5032166;28;20454;-72
2023/04/23 10:50:35;;;;;;;3.63;1.60;;;23.40;23.90;;;;;;5032284;28;20259;-72
2023/04/23 10:53:02;;;;;;;2.90;1.30;;;23.20;26.90;;;;;;5032064;28;20559;-72
2023/04/23 10:55:29;;;;;;;3.00;1.30;;;23.40;25.60;;;;;;5030507;28;20177;-72
2023/04/23 10:58:00;;;;;;;2.80;1.20;;;23.80;23.30;;;;;;5031979;28;20407;-72
2023/04/23 11:00:27;;;;;;;3.40;1.40;;;23.90;23.30;;;;;;5030780;28;20415;-72
2023/04/23 11:02:53;;;;;;;2.87;1.20;;;24.10;24.30;;;;;;5031826;28;20418;-72
2023/04/23 11:05:21;;;;;;;3.10;1.30;;;24.00;22.60;;;;;;5030293;28;20937;-72
2023/04/23 11:08:05;;;;;;;3.13;1.40;;;23.80;21.90;;;;;;5029596;28;20459;-72
2023/04/23 11:10:32;;;;;;;3.20;1.40;;;23.60;23.80;;;;;;5030485;28;20492;-72
2023/04/23 11:13:17;;;;;;;2.97;1.30;;;23.70;21.80;;;;;;5031636;28;20902;-72
2023/04/23 11:15:43;;;;;;;2.90;1.40;;;24.20;23.20;;;;;;5031683;28;20415;-72
2023/04/23 11:18:10;;;;;;;3.20;1.30;;;25.40;22.30;;;;;;5031891;28;20407;-72
2023/04/23 11:20:36;;;;;;;3.40;1.40;;;24.70;20.20;;;;;;5030182;28;20185;-72
2023/04/23 11:23:06;;;;;;;3.40;1.60;;;24.10;20.50;;;;;;5029702;28;20435;-72
2023/04/23 11:25:32;;;;;;;3.17;1.30;;;22.70;22.80;;;;;;5031500;28;20619;-72
2023/04/23 11:27:57;;;;;;;4.20;1.60;;;22.90;22.40;;;;;;5031646;28;20537;-72
2023/04/23 11:30:26;;;;;;;3.10;1.20;;;22.70;22.10;;;;;;5030843;28;20215;-72
2023/04/23 11:32:53;;;;;;;3.07;1.20;;;22.20;23.80;;;;;;5030788;28;20169;-72
2023/04/23 11:35:21;;;;;;;3.10;1.20;;;23.40;23.90;;;;;;5031561;28;20497;-72
2023/04/23 11:37:48;;;;;;;3.17;1.30;;;24.20;21.90;;;;;;5031464;28;20465;-72
2023/04/23 11:40:18;;;;;;;3.10;1.20;;;24.60;23.10;;;;;;5031589;28;20502;-73
2023/04/23 11:42:53;;;;;;;3.27;1.30;;;26.00;20.30;;;;;;5028507;28;20435;-72
2023/04/23 11:45:24;;;;;;;3.20;1.20;;;26.20;19.50;;;;;;5031546;28;20776;-71
2023/04/23 11:47:54;;;;;;;3.20;1.20;;;26.80;17.40;;;;;;5030626;28;20902;-72
2023/04/23 11:50:23;;;;;;;3.13;1.20;;;27.20;18.00;;;;;;5031493;28;20418;-72
2023/04/23 11:52:49;;;;;;;3.67;1.60;;;28.00;17.70;;;;;;5029849;28;20427;-73
2023/04/23 11:55:15;;;;;;;3.30;1.13;;;29.50;16.20;;;;;;5030092;28;20423;-72
2023/04/23 11:57:46;;;;;;;3.80;1.30;;;29.70;14.60;;;;;;5031386;28;20451;-73
2023/04/23 12:00:18;;;;;;;3.63;1.30;;;29.70;13.70;;;;;;5031313;28;20399;-72
2023/04/23 12:02:58;;;;;;;3.57;1.30;;;30.60;13.40;;;;;;5030407;28;20404;-73
2023/04/23 12:05:28;;;;;;;3.50;1.20;;;31.60;13.80;;;;;;5028592;28;20430;-72
2023/04/23 12:08:05;;;;;;;3.40;1.00;;;30.00;14.00;;;;;;5031334;28;20454;-73
2023/04/23 12:10:30;;;;;;;3.60;1.30;;;30.00;13.60;;;;;;5030162;28;20414;-72
2023/04/23 12:12:57;;;;;;;3.40;1.10;;;29.70;16.30;;;;;;5030898;28;20407;-73
2023/04/23 12:15:23;;;;;;;3.60;1.17;;;29.10;17.00;;;;;;5029480;28;20204;-73
2023/04/23 12:17:50;;;;;;;3.50;1.10;;;28.70;16.40;;;;;;5032314;28;20462;-73
2023/04/23 12:20:18;;;;;;;3.50;1.10;;;28.60;15.90;;;;;;5033775;28;20176;-73
2023/04/23 12:22:44;;;;;;;3.80;1.20;;;28.80;13.90;;;;;;5034872;28;20480;-72
2023/04/23 12:25:09;;;;;;;3.50;1.10;;;27.90;15.00;;;;;;5033923;28;21036;-72
2023/04/23 12:27:43;;;;;;;3.90;1.33;;;27.70;15.90;;;;;;5034200;28;20699;-72
2023/04/23 12:30:10;;;;;;;3.40;1.10;;;26.10;18.20;;;;;;5034742;28;20303;-72
2023/04/23 12:32:36;;;;;;;3.70;1.40;;;25.90;19.20;;;;;;5034616;28;20439;-72
2023/04/23 12:35:05;;;;;;;3.10;1.10;;;25.30;21.50;;;;;;5034028;28;20438;-72
2023/04/23 12:37:34;;;;;;;3.30;1.20;;;24.80;21.30;;;;;;5034064;28;20830;-72
2023/04/23 12:40:00;;;;;;;3.20;1.20;;;24.60;20.00;;;;;;5034490;28;20414;-72
2023/04/23 12:42:26;;;;;;;3.70;1.30;;;24.10;19.30;;;;;;5034557;28;20418;-72
2023/04/23 12:44:54;;;;;;;3.20;1.20;;;23.30;20.80;;;;;;5034464;28;20208;-73